Terminal Aerodrome Forecast
Issued by NWS

Home | Current Version | Previous Version | Graphics & Text | Print | Product List | Glossary On
Versions: 1 2 3 4 5 6 7 8 9 10 11 12
000
FTUS43 KMPX 251724
TAFRNH
TAF
KRNH 251724Z 2518/2618 20004KT P6SM OVC100
     FM252000 21005KT P6SM -SHRA OVC050
     FM252300 VRB03KT 6SM -SHRA BR SCT025 OVC040
      TEMPO 2523/2603 5SM -SHRA BR BKN025
     FM260300 04007KT 5SM -SHRA BR OVC025
     FM260500 04011G19KT 5SM -RA BR OVC015
     FM260700 04012G20KT 4SM -RA BR OVC008=

USA.gov is the U.S. government's official web portal to all federal, state and local government web resources and services.